Time;durP1;ratioP1;P1;durP2;ratioP2;P2;SDS_P1;SDS_P2;PMS_P1;PMS_P2;Temp;Humidity;BMP_temperature;BMP_pressure;BME280_temperature;BME280_humidity;BME280_pressure;Samples;Min_cycle;Max_cycle;Signal;HPM_P1;HPM_P2
2023/03/19 00:00:52;;;;;;;2.10;2.00;;;;;;;;;;4955133;28;20218;-55
2023/03/19 00:03:17;;;;;;;1.90;1.80;;;;;;;;;;4954813;28;20196;-55
2023/03/19 00:05:50;;;;;;;2.10;2.00;;;;;;;;;;4952628;28;20235;-53
2023/03/19 00:08:16;;;;;;;1.60;1.60;;;;;;;;;;4936959;28;20195;-56
2023/03/19 00:10:42;;;;;;;2.00;1.90;;;;;;;;;;4947310;28;20205;-55
2023/03/19 00:13:09;;;;;;;2.00;1.90;;;;;;;;;;4946683;28;20390;-56
2023/03/19 00:15:35;;;;;;;2.10;2.00;;;;;;;;;;4945885;28;20231;-55
2023/03/19 00:18:01;;;;;;;2.00;1.90;;;;;;;;;;4931241;28;20207;-56
2023/03/19 00:20:27;;;;;;;2.10;2.00;;;;;;;;;;4948552;28;20202;-53
2023/03/19 00:22:53;;;;;;;2.30;2.20;;;;;;;;;;4947913;28;20222;-56
2023/03/19 00:25:19;;;;;;;2.40;2.30;;;;;;;;;;4943248;28;20191;-55
2023/03/19 00:27:45;;;;;;;2.10;2.00;;;;;;;;;;4949591;28;20203;-56
2023/03/19 00:30:11;;;;;;;1.10;1.10;;;;;;;;;;4948463;28;20903;-56
2023/03/19 00:32:38;;;;;;;1.20;1.20;;;;;;;;;;4946357;28;20207;-54
2023/03/19 00:35:07;;;;;;;1.30;1.30;;;;;;;;;;4950594;28;20287;-55
2023/03/19 00:37:33;;;;;;;1.13;1.13;;;;;;;;;;4953738;28;20219;-55
2023/03/19 00:39:59;;;;;;;1.40;1.40;;;;;;;;;;4946075;28;20756;-55
2023/03/19 00:42:25;;;;;;;1.00;1.00;;;;;;;;;;4950813;28;20432;-55
2023/03/19 00:44:51;;;;;;;0.90;0.90;;;;;;;;;;4954208;28;20481;-56
2023/03/19 00:47:17;;;;;;;1.00;1.00;;;;;;;;;;4952870;28;20326;-55
2023/03/19 00:49:43;;;;;;;0.93;0.93;;;;;;;;;;4958257;28;20221;-55
2023/03/19 00:52:09;;;;;;;0.90;0.90;;;;;;;;;;4955875;28;20190;-55
2023/03/19 00:54:35;;;;;;;0.87;0.87;;;;;;;;;;4939570;28;20222;-56
2023/03/19 00:57:01;;;;;;;0.90;0.90;;;;;;;;;;4958434;28;20211;-55
2023/03/19 00:59:27;;;;;;;1.00;1.00;;;;;;;;;;4961030;28;20187;-55
2023/03/19 01:01:53;;;;;;;1.07;1.07;;;;;;;;;;4955143;28;20220;-55
2023/03/19 01:04:19;;;;;;;0.80;0.80;;;;;;;;;;4957903;28;20205;-55
2023/03/19 01:06:45;;;;;;;0.90;0.90;;;;;;;;;;4951558;28;20694;-55
2023/03/19 01:09:11;;;;;;;1.20;1.20;;;;;;;;;;4952760;28;20203;-56
2023/03/19 01:11:37;;;;;;;1.30;1.30;;;;;;;;;;4936608;28;20306;-55
2023/03/19 01:14:03;;;;;;;1.30;1.30;;;;;;;;;;4935316;28;20218;-55
2023/03/19 01:16:29;;;;;;;1.20;1.20;;;;;;;;;;4947888;28;20305;-55
2023/03/19 01:18:55;;;;;;;1.30;1.30;;;;;;;;;;4950993;28;20183;-55
2023/03/19 01:21:21;;;;;;;1.20;1.20;;;;;;;;;;4955357;28;20187;-55
2023/03/19 01:23:47;;;;;;;1.20;1.20;;;;;;;;;;4936684;28;20688;-56
2023/03/19 01:26:13;;;;;;;1.20;1.20;;;;;;;;;;4943088;28;20191;-56
2023/03/19 01:28:39;;;;;;;1.30;1.30;;;;;;;;;;4949609;28;20187;-55
2023/03/19 01:31:06;;;;;;;1.30;1.30;;;;;;;;;;4945303;28;20214;-55
2023/03/19 01:33:32;;;;;;;1.20;1.20;;;;;;;;;;4950015;28;20695;-55
2023/03/19 01:36:01;;;;;;;1.20;1.20;;;;;;;;;;4944859;28;20667;-56
2023/03/19 01:38:27;;;;;;;1.10;1.10;;;;;;;;;;4946728;28;20230;-55
2023/03/19 01:40:53;;;;;;;1.00;1.00;;;;;;;;;;4950975;28;21037;-56
2023/03/19 01:43:20;;;;;;;0.93;0.93;;;;;;;;;;4948887;28;20182;-55
2023/03/19 01:45:47;;;;;;;0.80;0.80;;;;;;;;;;4949928;28;20195;-55
2023/03/19 01:48:25;;;;;;;0.97;0.97;;;;;;;;;;4954357;28;20195;-55
2023/03/19 01:50:52;;;;;;;0.90;0.90;;;;;;;;;;4955511;28;20433;-55
2023/03/19 01:53:19;;;;;;;1.27;1.27;;;;;;;;;;4953148;28;20307;-55
2023/03/19 01:55:45;;;;;;;1.30;1.30;;;;;;;;;;4942055;28;20191;-55
2023/03/19 01:58:10;;;;;;;1.30;1.30;;;;;;;;;;4958023;28;20700;-55
2023/03/19 02:00:37;;;;;;;1.20;1.20;;;;;;;;;;4937598;28;20597;-55
2023/03/19 02:03:03;;;;;;;1.23;1.23;;;;;;;;;;4951896;28;20204;-55
2023/03/19 02:05:29;;;;;;;1.27;1.27;;;;;;;;;;4959341;28;20230;-55
2023/03/19 02:07:57;;;;;;;1.20;1.20;;;;;;;;;;4956412;28;20210;-55
2023/03/19 02:10:23;;;;;;;1.10;1.10;;;;;;;;;;4938000;28;20196;-56
2023/03/19 02:12:49;;;;;;;1.10;1.10;;;;;;;;;;4952882;28;20198;-56
2023/03/19 02:15:15;;;;;;;1.10;1.10;;;;;;;;;;4956861;28;20243;-55
2023/03/19 02:17:42;;;;;;;1.20;1.20;;;;;;;;;;4950545;28;21160;-54
2023/03/19 02:20:22;;;;;;;1.10;1.10;;;;;;;;;;4950296;28;20195;-56
2023/03/19 02:22:51;;;;;;;1.20;1.20;;;;;;;;;;4950446;28;20191;-55
2023/03/19 02:25:22;;;;;;;1.23;1.23;;;;;;;;;;4949880;28;20192;-55
2023/03/19 02:27:48;;;;;;;1.30;1.30;;;;;;;;;;4947278;28;20680;-55
2023/03/19 02:30:18;;;;;;;1.30;1.30;;;;;;;;;;4939439;28;20199;-55
2023/03/19 02:32:44;;;;;;;1.20;1.20;;;;;;;;;;4954983;28;20251;-55
2023/03/19 02:35:10;;;;;;;1.40;1.40;;;;;;;;;;4950602;28;20199;-55
2023/03/19 02:37:36;;;;;;;1.40;1.40;;;;;;;;;;4947701;28;20215;-55
2023/03/19 02:40:09;;;;;;;1.20;1.20;;;;;;;;;;4956515;28;20554;-56
2023/03/19 02:42:35;;;;;;;1.20;1.20;;;;;;;;;;4934713;28;20981;-55
2023/03/19 02:45:01;;;;;;;1.27;1.27;;;;;;;;;;4950540;28;20186;-55
2023/03/19 02:47:27;;;;;;;1.10;1.10;;;;;;;;;;4953108;28;20207;-55
2023/03/19 02:49:53;;;;;;;1.20;1.20;;;;;;;;;;4945269;28;20195;-54
2023/03/19 02:52:19;;;;;;;1.20;1.20;;;;;;;;;;4952457;28;20191;-55
2023/03/19 02:54:45;;;;;;;1.20;1.20;;;;;;;;;;4937172;28;20191;-55
2023/03/19 02:57:11;;;;;;;1.27;1.27;;;;;;;;;;4957847;28;20566;-55
2023/03/19 02:59:37;;;;;;;1.20;1.20;;;;;;;;;;4950005;28;20262;-55
2023/03/19 03:02:03;;;;;;;1.20;1.20;;;;;;;;;;4933063;28;20262;-55
2023/03/19 03:04:30;;;;;;;1.10;1.10;;;;;;;;;;4953739;28;20242;-54
2023/03/19 03:06:56;;;;;;;1.20;1.20;;;;;;;;;;4949141;28;20239;-55
2023/03/19 03:09:22;;;;;;;1.20;1.20;;;;;;;;;;4931529;28;20494;-55
2023/03/19 03:11:48;;;;;;;1.20;1.20;;;;;;;;;;4949868;28;20195;-54
2023/03/19 03:14:14;;;;;;;1.20;1.20;;;;;;;;;;4944824;28;20253;-55
2023/03/19 03:16:40;;;;;;;1.20;1.20;;;;;;;;;;4951906;28;20223;-55
2023/03/19 03:19:06;;;;;;;1.20;1.20;;;;;;;;;;4951935;28;20203;-55
2023/03/19 03:21:32;;;;;;;1.10;1.10;;;;;;;;;;4927575;28;20645;-55
2023/03/19 03:23:58;;;;;;;1.10;1.10;;;;;;;;;;4949327;28;20184;-55
2023/03/19 03:26:24;;;;;;;1.10;1.10;;;;;;;;;;4952518;28;20543;-55
2023/03/19 03:28:51;;;;;;;1.27;1.27;;;;;;;;;;4953457;28;20195;-55
2023/03/19 03:31:17;;;;;;;1.20;1.20;;;;;;;;;;4937821;28;20192;-55
2023/03/19 03:33:43;;;;;;;1.10;1.10;;;;;;;;;;4954406;28;20646;-54
2023/03/19 03:36:08;;;;;;;1.20;1.20;;;;;;;;;;4948804;28;20202;-55
2023/03/19 03:38:34;;;;;;;1.20;1.20;;;;;;;;;;4942172;28;20675;-55
2023/03/19 03:41:00;;;;;;;1.00;1.00;;;;;;;;;;4937861;28;20183;-55
2023/03/19 03:43:26;;;;;;;1.30;1.30;;;;;;;;;;4950791;28;20191;-55
2023/03/19 03:45:53;;;;;;;1.20;1.20;;;;;;;;;;4927275;28;20195;-55
2023/03/19 03:48:19;;;;;;;1.20;1.20;;;;;;;;;;4950021;28;20250;-55
2023/03/19 03:50:45;;;;;;;1.10;1.10;;;;;;;;;;4951306;28;20207;-55
2023/03/19 03:53:11;;;;;;;1.30;1.30;;;;;;;;;;4950443;28;20196;-55
2023/03/19 03:55:37;;;;;;;1.10;1.10;;;;;;;;;;4947123;28;20183;-55
2023/03/19 03:58:03;;;;;;;1.30;1.30;;;;;;;;;;4953591;28;20274;-55
2023/03/19 04:00:29;;;;;;;1.10;1.10;;;;;;;;;;4944306;28;20194;-55
2023/03/19 04:02:55;;;;;;;1.30;1.30;;;;;;;;;;4951329;28;20187;-55
2023/03/19 04:05:21;;;;;;;1.20;1.20;;;;;;;;;;4949927;28;20190;-55
2023/03/19 04:07:47;;;;;;;1.20;1.20;;;;;;;;;;4943242;28;20203;-55
2023/03/19 04:10:14;;;;;;;1.10;1.10;;;;;;;;;;4953345;28;20192;-55
2023/03/19 04:12:40;;;;;;;1.10;1.10;;;;;;;;;;4942170;28;20643;-56
2023/03/19 04:15:06;;;;;;;1.20;1.20;;;;;;;;;;4945827;28;20195;-55
2023/03/19 04:17:32;;;;;;;1.20;1.20;;;;;;;;;;4924147;28;20227;-56
2023/03/19 04:19:58;;;;;;;1.27;1.27;;;;;;;;;;4949310;28;21407;-55
2023/03/19 04:22:24;;;;;;;1.20;1.20;;;;;;;;;;4957432;28;20202;-56
2023/03/19 04:24:50;;;;;;;1.10;1.10;;;;;;;;;;4953825;28;20536;-55
2023/03/19 04:27:16;;;;;;;1.40;1.40;;;;;;;;;;4948986;28;20204;-55
2023/03/19 04:29:42;;;;;;;1.20;1.20;;;;;;;;;;4949121;28;20525;-54
2023/03/19 04:32:08;;;;;;;1.10;1.10;;;;;;;;;;4945904;28;20694;-55
2023/03/19 04:34:34;;;;;;;1.10;1.10;;;;;;;;;;4954798;28;20715;-55
2023/03/19 04:37:01;;;;;;;1.20;1.20;;;;;;;;;;4954253;28;20278;-55
2023/03/19 04:39:27;;;;;;;1.10;1.10;;;;;;;;;;4953319;28;20231;-55
2023/03/19 04:41:53;;;;;;;1.20;1.20;;;;;;;;;;4955932;28;20186;-55
2023/03/19 04:44:18;;;;;;;1.00;1.00;;;;;;;;;;4954604;28;20772;-55
2023/03/19 04:46:45;;;;;;;1.20;1.20;;;;;;;;;;4952835;28;20191;-55
2023/03/19 04:49:11;;;;;;;1.30;1.30;;;;;;;;;;4953759;28;20218;-56
2023/03/19 04:51:37;;;;;;;1.20;1.20;;;;;;;;;;4958887;28;20549;-55
2023/03/19 04:54:04;;;;;;;1.00;1.00;;;;;;;;;;4956853;28;20268;-55
2023/03/19 04:56:30;;;;;;;1.10;1.10;;;;;;;;;;4957168;28;20274;-55
2023/03/19 04:58:56;;;;;;;1.37;1.37;;;;;;;;;;4955382;28;20944;-55
2023/03/19 05:01:22;;;;;;;1.20;1.20;;;;;;;;;;4956247;28;20234;-54
2023/03/19 05:03:48;;;;;;;1.30;1.30;;;;;;;;;;4955876;28;20191;-55
2023/03/19 05:06:14;;;;;;;1.30;1.30;;;;;;;;;;4957552;28;20285;-56
2023/03/19 05:08:40;;;;;;;1.30;1.30;;;;;;;;;;4960754;28;20179;-55
2023/03/19 05:11:06;;;;;;;1.00;1.00;;;;;;;;;;4959068;28;20278;-56
2023/03/19 05:13:32;;;;;;;1.20;1.20;;;;;;;;;;4959330;28;20218;-55
2023/03/19 05:15:58;;;;;;;1.20;1.20;;;;;;;;;;4961704;28;20195;-55
2023/03/19 05:18:24;;;;;;;1.30;1.30;;;;;;;;;;4958308;28;20203;-55
2023/03/19 05:20:50;;;;;;;1.37;1.37;;;;;;;;;;4957323;28;20551;-55
2023/03/19 05:23:16;;;;;;;1.20;1.20;;;;;;;;;;4939190;28;20191;-55
2023/03/19 05:25:42;;;;;;;1.20;1.20;;;;;;;;;;4954685;28;20183;-55
2023/03/19 05:28:08;;;;;;;1.20;1.20;;;;;;;;;;4957522;28;20230;-55
2023/03/19 05:30:34;;;;;;;1.20;1.20;;;;;;;;;;4957839;28;20273;-54
2023/03/19 05:33:01;;;;;;;1.17;1.17;;;;;;;;;;4958759;28;20187;-55
2023/03/19 05:35:28;;;;;;;1.10;1.10;;;;;;;;;;4960016;28;20303;-54
2023/03/19 05:37:54;;;;;;;1.20;1.20;;;;;;;;;;4956043;28;20214;-55
2023/03/19 05:40:21;;;;;;;1.10;1.10;;;;;;;;;;4954995;28;20187;-56
2023/03/19 05:42:47;;;;;;;1.30;1.30;;;;;;;;;;4954314;28;20274;-56
2023/03/19 05:45:13;;;;;;;1.20;1.20;;;;;;;;;;4948091;28;20199;-55
2023/03/19 05:47:39;;;;;;;1.20;1.20;;;;;;;;;;4958076;28;20217;-54
2023/03/19 05:50:05;;;;;;;1.20;1.20;;;;;;;;;;4960674;28;20262;-55
2023/03/19 05:52:31;;;;;;;1.20;1.20;;;;;;;;;;4960467;28;20199;-55
2023/03/19 05:54:57;;;;;;;1.10;1.10;;;;;;;;;;4951440;28;20270;-54
2023/03/19 05:57:23;;;;;;;1.20;1.20;;;;;;;;;;4954769;28;20211;-55
2023/03/19 05:59:49;;;;;;;1.20;1.20;;;;;;;;;;4945324;28;20201;-55
2023/03/19 06:02:16;;;;;;;1.10;1.10;;;;;;;;;;4929433;28;20190;-56
2023/03/19 06:04:42;;;;;;;1.27;1.27;;;;;;;;;;4942604;28;20198;-55
2023/03/19 06:07:08;;;;;;;1.13;1.13;;;;;;;;;;4921501;28;20234;-56
2023/03/19 06:09:34;;;;;;;1.20;1.20;;;;;;;;;;4927842;28;20190;-55
2023/03/19 06:12:00;;;;;;;1.23;1.23;;;;;;;;;;4946323;28;20539;-55
2023/03/19 06:14:26;;;;;;;1.20;1.20;;;;;;;;;;4939247;28;20706;-54
2023/03/19 06:16:52;;;;;;;1.30;1.30;;;;;;;;;;4952109;28;20814;-54
2023/03/19 06:19:18;;;;;;;1.10;1.10;;;;;;;;;;4955276;28;20187;-55
2023/03/19 06:21:44;;;;;;;1.10;1.10;;;;;;;;;;4956734;28;20205;-55
2023/03/19 06:24:10;;;;;;;1.17;1.17;;;;;;;;;;4956874;28;20661;-55
2023/03/19 06:26:36;;;;;;;1.30;1.30;;;;;;;;;;4950491;28;20195;-55
2023/03/19 06:29:02;;;;;;;1.20;1.20;;;;;;;;;;4954763;28;20203;-55
2023/03/19 06:31:28;;;;;;;1.20;1.20;;;;;;;;;;4942475;28;20634;-56
2023/03/19 06:33:54;;;;;;;1.07;1.07;;;;;;;;;;4954963;28;20192;-54
2023/03/19 06:36:20;;;;;;;1.20;1.20;;;;;;;;;;4951108;28;20191;-55
2023/03/19 06:38:46;;;;;;;1.20;1.20;;;;;;;;;;4951931;28;20199;-55
2023/03/19 06:41:12;;;;;;;1.20;1.20;;;;;;;;;;4949072;28;20209;-56
2023/03/19 06:43:40;;;;;;;1.37;1.37;;;;;;;;;;4932848;28;20618;-56
2023/03/19 06:46:07;;;;;;;1.00;1.00;;;;;;;;;;4922102;28;21719;-55
2023/03/19 06:48:33;;;;;;;1.20;1.20;;;;;;;;;;4934980;28;20200;-55
2023/03/19 06:51:00;;;;;;;1.10;1.10;;;;;;;;;;4951754;28;20198;-56
2023/03/19 06:53:26;;;;;;;1.20;1.20;;;;;;;;;;4930283;28;20232;-55
2023/03/19 06:55:52;;;;;;;1.20;1.20;;;;;;;;;;4947519;28;20633;-54
2023/03/19 06:58:18;;;;;;;1.10;1.10;;;;;;;;;;4949499;28;20659;-55
2023/03/19 07:00:44;;;;;;;1.23;1.23;;;;;;;;;;4952680;28;20663;-55
2023/03/19 07:03:10;;;;;;;1.20;1.20;;;;;;;;;;4948468;28;20672;-55
2023/03/19 07:05:36;;;;;;;1.10;1.10;;;;;;;;;;4955001;28;20233;-56
2023/03/19 07:08:02;;;;;;;1.10;1.10;;;;;;;;;;4947839;28;20195;-55
2023/03/19 07:10:28;;;;;;;1.17;1.17;;;;;;;;;;4945439;28;20731;-56
2023/03/19 07:12:54;;;;;;;1.37;1.37;;;;;;;;;;4943188;28;20321;-55
2023/03/19 07:15:20;;;;;;;1.20;1.20;;;;;;;;;;4955705;28;20343;-55
2023/03/19 07:17:46;;;;;;;1.20;1.20;;;;;;;;;;4955337;28;20235;-55
2023/03/19 07:20:12;;;;;;;1.13;1.13;;;;;;;;;;4955259;28;20191;-55
2023/03/19 07:22:38;;;;;;;1.10;1.10;;;;;;;;;;4950570;28;20679;-55
2023/03/19 07:25:05;;;;;;;1.10;1.10;;;;;;;;;;4941699;28;20196;-55
2023/03/19 07:27:31;;;;;;;1.10;1.10;;;;;;;;;;4936387;28;20213;-56
2023/03/19 07:29:57;;;;;;;1.10;1.10;;;;;;;;;;4945103;28;20254;-55
2023/03/19 07:32:23;;;;;;;1.00;1.00;;;;;;;;;;4935522;28;20298;-55
2023/03/19 07:34:49;;;;;;;1.10;1.10;;;;;;;;;;4939599;28;20674;-54
2023/03/19 07:37:15;;;;;;;1.10;1.10;;;;;;;;;;4932442;28;20219;-56
2023/03/19 07:39:41;;;;;;;1.10;1.10;;;;;;;;;;4937139;28;20297;-55
2023/03/19 07:42:07;;;;;;;1.10;1.10;;;;;;;;;;4942158;28;20390;-54
2023/03/19 07:44:33;;;;;;;1.00;1.00;;;;;;;;;;4941770;28;20191;-55
2023/03/19 07:46:59;;;;;;;1.00;1.00;;;;;;;;;;4942042;28;20192;-55
2023/03/19 07:49:25;;;;;;;0.70;0.70;;;;;;;;;;4937554;28;20254;-55
2023/03/19 07:51:51;;;;;;;0.80;0.80;;;;;;;;;;4938745;28;20190;-55
2023/03/19 07:54:17;;;;;;;0.90;0.90;;;;;;;;;;4943561;28;20196;-54
2023/03/19 07:56:43;;;;;;;1.10;1.10;;;;;;;;;;4948616;28;20269;-55
2023/03/19 07:59:10;;;;;;;0.80;0.80;;;;;;;;;;4952584;28;20732;-55
2023/03/19 08:01:36;;;;;;;0.90;0.90;;;;;;;;;;4942166;28;20569;-55
2023/03/19 08:04:02;;;;;;;0.83;0.83;;;;;;;;;;4957030;28;20189;-55
2023/03/19 08:06:28;;;;;;;0.80;0.80;;;;;;;;;;4951033;28;20712;-55
2023/03/19 08:08:54;;;;;;;0.80;0.80;;;;;;;;;;4946579;28;20194;-55
2023/03/19 08:11:21;;;;;;;0.90;0.90;;;;;;;;;;4954602;28;20202;-55
2023/03/19 08:13:47;;;;;;;1.00;1.00;;;;;;;;;;4943308;28;20210;-54
2023/03/19 08:16:13;;;;;;;1.50;1.50;;;;;;;;;;4940220;28;20338;-54
2023/03/19 08:18:39;;;;;;;1.00;1.00;;;;;;;;;;4919665;28;21360;-56
2023/03/19 08:21:05;;;;;;;0.90;0.90;;;;;;;;;;4933837;28;20190;-55
2023/03/19 08:23:31;;;;;;;0.90;0.90;;;;;;;;;;4937402;28;20183;-56
2023/03/19 08:25:57;;;;;;;0.80;0.80;;;;;;;;;;4947633;28;20727;-56
2023/03/19 08:28:23;;;;;;;0.70;0.70;;;;;;;;;;4945471;28;20406;-56
2023/03/19 08:30:49;;;;;;;0.60;0.60;;;;;;;;;;4945248;28;20636;-56
2023/03/19 08:33:15;;;;;;;0.80;0.80;;;;;;;;;;4938702;28;20201;-56
2023/03/19 08:35:41;;;;;;;1.20;1.20;;;;;;;;;;4942972;28;20223;-56
2023/03/19 08:38:07;;;;;;;0.80;0.80;;;;;;;;;;4934156;28;20362;-56
2023/03/19 08:40:33;;;;;;;0.70;0.70;;;;;;;;;;4946700;28;20675;-56
2023/03/19 08:43:00;;;;;;;0.80;0.80;;;;;;;;;;4947754;28;20174;-56
2023/03/19 08:45:26;;;;;;;0.90;0.90;;;;;;;;;;4949153;28;20202;-56
2023/03/19 08:47:52;;;;;;;0.70;0.70;;;;;;;;;;4940455;28;20561;-55
2023/03/19 08:50:18;;;;;;;1.20;1.20;;;;;;;;;;4953257;28;20655;-56
2023/03/19 08:52:44;;;;;;;1.20;1.20;;;;;;;;;;4943962;28;20222;-56
2023/03/19 08:55:10;;;;;;;1.30;1.30;;;;;;;;;;4935560;28;20202;-56
2023/03/19 08:57:36;;;;;;;1.00;1.00;;;;;;;;;;4941419;28;20215;-56
2023/03/19 09:00:04;;;;;;;0.70;0.70;;;;;;;;;;4945580;28;20654;-56
2023/03/19 09:02:30;;;;;;;0.70;0.70;;;;;;;;;;4935492;28;20180;-56
2023/03/19 09:04:56;;;;;;;1.20;1.20;;;;;;;;;;4929944;28;20552;-57
2023/03/19 09:07:22;;;;;;;1.20;1.20;;;;;;;;;;4944401;28;20600;-56
2023/03/19 09:09:48;;;;;;;1.10;1.10;;;;;;;;;;4945608;28;20644;-57
2023/03/19 09:12:15;;;;;;;1.20;1.20;;;;;;;;;;4947160;28;20207;-56
2023/03/19 09:14:41;;;;;;;1.40;1.40;;;;;;;;;;4928240;28;20223;-56
2023/03/19 09:17:07;;;;;;;1.60;1.60;;;;;;;;;;4947781;28;20241;-56
2023/03/19 09:19:33;;;;;;;1.63;1.60;;;;;;;;;;4948892;28;20516;-57
2023/03/19 09:22:00;;;;;;;1.10;1.10;;;;;;;;;;4937284;28;20226;-56
2023/03/19 09:24:26;;;;;;;1.77;1.70;;;;;;;;;;4950094;28;20184;-56
2023/03/19 09:26:52;;;;;;;1.20;1.20;;;;;;;;;;4956484;28;20275;-56
2023/03/19 09:29:18;;;;;;;2.00;1.90;;;;;;;;;;4950545;28;21088;-56
2023/03/19 09:31:44;;;;;;;1.90;1.80;;;;;;;;;;4942824;28;20621;-56
2023/03/19 09:34:10;;;;;;;1.10;1.10;;;;;;;;;;4950996;28;20199;-56
2023/03/19 09:36:36;;;;;;;1.20;1.20;;;;;;;;;;4954788;28;20209;-56
2023/03/19 09:39:04;;;;;;;1.20;1.20;;;;;;;;;;4953759;28;20277;-56
2023/03/19 09:41:39;;;;;;;1.90;1.80;;;;;;;;;;4951431;28;20771;-57
2023/03/19 09:44:25;;;;;;;2.20;2.10;;;;;;;;;;4955199;28;20222;-56
2023/03/19 09:46:52;;;;;;;1.90;1.80;;;;;;;;;;4935732;28;20191;-55
2023/03/19 09:49:22;;;;;;;1.90;1.80;;;;;;;;;;4949356;28;20547;-55
2023/03/19 09:51:52;;;;;;;2.38;2.28;;;;;;;;;;4933338;28;20229;-56
2023/03/19 09:54:27;;;;;;;1.63;1.63;;;;;;;;;;4948271;28;20207;-56
2023/03/19 09:56:53;;;;;;;1.88;1.77;;;;;;;;;;4953714;28;20246;-57
2023/03/19 09:59:22;;;;;;;1.50;1.50;;;;;;;;;;4946657;28;20197;-57
2023/03/19 10:02:08;;;;;;;1.60;1.60;;;;;;;;;;4955335;28;20266;-57
2023/03/19 10:04:41;;;;;;;1.90;1.80;;;;;;;;;;4917907;28;20571;-56
2023/03/19 10:07:14;;;;;;;1.60;1.60;;;;;;;;;;4936646;28;20325;-58
2023/03/19 10:09:43;;;;;;;2.00;1.90;;;;;;;;;;4953970;28;20617;-57
2023/03/19 10:12:12;;;;;;;1.60;1.60;;;;;;;;;;4951203;28;20199;-57
2023/03/19 10:14:38;;;;;;;1.50;1.50;;;;;;;;;;4955025;28;20242;-57
2023/03/19 10:17:04;;;;;;;1.80;1.70;;;;;;;;;;4953128;28;20223;-59
2023/03/19 10:19:37;;;;;;;1.70;1.70;;;;;;;;;;4959939;28;20284;-58
2023/03/19 10:22:06;;;;;;;2.00;1.90;;;;;;;;;;4941470;28;20238;-58
2023/03/19 10:24:33;;;;;;;1.63;1.63;;;;;;;;;;4947884;28;20180;-56
2023/03/19 10:27:00;;;;;;;1.80;1.70;;;;;;;;;;4932410;28;20190;-56
2023/03/19 10:29:27;;;;;;;1.50;1.50;;;;;;;;;;4943278;28;20464;-56
2023/03/19 10:32:04;;;;;;;1.50;1.50;;;;;;;;;;4945775;28;20211;-55
2023/03/19 10:34:34;;;;;;;1.60;1.60;;;;;;;;;;4938524;28;20203;-56
2023/03/19 10:37:04;;;;;;;1.60;1.60;;;;;;;;;;4946457;28;20210;-56
2023/03/19 10:39:33;;;;;;;1.70;1.60;;;;;;;;;;4945064;28;20249;-56
2023/03/19 10:42:18;;;;;;;1.70;1.70;;;;;;;;;;4948970;28;20193;-59
2023/03/19 10:44:49;;;;;;;1.90;1.80;;;;;;;;;;4939414;28;20195;-59
2023/03/19 10:47:15;;;;;;;1.90;1.80;;;;;;;;;;4931843;28;20249;-57
2023/03/19 10:49:41;;;;;;;1.80;1.70;;;;;;;;;;4951066;28;20191;-56
2023/03/19 10:52:26;;;;;;;1.80;1.70;;;;;;;;;;4951984;28;20462;-56
2023/03/19 10:54:56;;;;;;;1.60;1.60;;;;;;;;;;4956763;28;20281;-57
2023/03/19 10:57:25;;;;;;;1.50;1.50;;;;;;;;;;4959147;28;20203;-56
2023/03/19 10:59:51;;;;;;;1.70;1.70;;;;;;;;;;4953996;28;20686;-56
2023/03/19 11:02:18;;;;;;;1.50;1.50;;;;;;;;;;4959665;28;20198;-57
2023/03/19 11:04:45;;;;;;;1.90;1.80;;;;;;;;;;4958248;28;20675;-56
2023/03/19 11:07:12;;;;;;;1.80;1.70;;;;;;;;;;4958977;28;20227;-56
2023/03/19 11:09:38;;;;;;;1.80;1.70;;;;;;;;;;4947150;28;20195;-56
2023/03/19 11:12:24;;;;;;;1.60;1.60;;;;;;;;;;4959856;28;20590;-56
2023/03/19 11:14:51;;;;;;;1.60;1.60;;;;;;;;;;4958518;28;20199;-57
2023/03/19 11:17:16;;;;;;;1.80;1.70;;;;;;;;;;4929476;28;20254;-57
2023/03/19 11:19:43;;;;;;;1.90;1.80;;;;;;;;;;4959276;28;20600;-57
2023/03/19 11:22:13;;;;;;;1.70;1.70;;;;;;;;;;4947757;28;20198;-57
2023/03/19 11:24:39;;;;;;;1.50;1.50;;;;;;;;;;4943726;28;20199;-57
2023/03/19 11:27:06;;;;;;;1.60;1.60;;;;;;;;;;4960110;28;20187;-57
2023/03/19 11:29:32;;;;;;;1.60;1.60;;;;;;;;;;4957120;28;20609;-57
2023/03/19 11:32:08;;;;;;;1.50;1.50;;;;;;;;;;4944546;28;20198;-56
2023/03/19 11:34:40;;;;;;;1.50;1.50;;;;;;;;;;4958036;28;20198;-57
2023/03/19 11:37:27;;;;;;;1.63;1.63;;;;;;;;;;4947624;28;20258;-56
2023/03/19 11:39:57;;;;;;;1.40;1.40;;;;;;;;;;4937778;28;20227;-56
2023/03/19 11:42:23;;;;;;;1.50;1.50;;;;;;;;;;4946315;28;20202;-56
2023/03/19 11:45:01;;;;;;;1.50;1.50;;;;;;;;;;4946217;28;20182;-55
2023/03/19 11:47:36;;;;;;;1.40;1.40;;;;;;;;;;4941249;28;20405;-55
2023/03/19 11:50:17;;;;;;;1.60;1.60;;;;;;;;;;4952950;28;20187;-56
2023/03/19 11:53:03;;;;;;;1.50;1.50;;;;;;;;;;4957749;28;20270;-55
2023/03/19 11:56:06;;;;;;;1.50;1.50;;;;;;;;;;4947507;28;20266;-55
2023/03/19 11:58:49;;;;;;;1.45;1.45;;;;;;;;;;4873111;29;20231;-56
2023/03/19 12:01:19;;;;;;;1.60;1.60;;;;;;;;;;4931033;28;20203;-56
2023/03/19 12:03:59;;;;;;;1.60;1.60;;;;;;;;;;4941741;28;20191;-55
2023/03/19 12:06:34;;;;;;;1.40;1.40;;;;;;;;;;4932898;28;20314;-56
2023/03/19 12:09:04;;;;;;;1.50;1.50;;;;;;;;;;4945713;28;20538;-55
2023/03/19 12:11:33;;;;;;;1.80;1.73;;;;;;;;;;4921880;28;20941;-55
2023/03/19 12:14:02;;;;;;;1.90;1.80;;;;;;;;;;4922420;28;20191;-55
2023/03/19 12:16:50;;;;;;;1.60;1.60;;;;;;;;;;4926605;28;20187;-55
2023/03/19 12:19:27;;;;;;;2.50;2.40;;;;;;;;;;4939401;28;21197;-55
2023/03/19 12:22:14;;;;;;;2.85;2.75;;;;;;;;;;4944644;28;20180;-56
2023/03/19 12:25:02;;;;;;;1.50;1.50;;;;;;;;;;4951934;28;20184;-55
2023/03/19 12:27:33;;;;;;;1.50;1.50;;;;;;;;;;4941659;28;20556;-56
2023/03/19 12:30:20;;;;;;;1.00;1.00;;;;;;;;;;4943296;28;20176;-56
2023/03/19 12:32:52;;;;;;;1.00;1.00;;;;;;;;;;4947092;28;20706;-56
2023/03/19 12:35:20;;;;;;;1.10;1.10;;;;;;;;;;4949105;28;20231;-57
2023/03/19 12:37:46;;;;;;;1.10;1.10;;;;;;;;;;4936983;28;20263;-56
2023/03/19 12:40:14;;;;;;;1.00;1.00;;;;;;;;;;4941065;28;20587;-55
2023/03/19 12:42:40;;;;;;;1.00;1.00;;;;;;;;;;4943332;28;20191;-56
2023/03/19 12:45:16;;;;;;;1.00;1.00;;;;;;;;;;4948073;28;20188;-56
2023/03/19 12:47:42;;;;;;;1.10;1.10;;;;;;;;;;4952509;28;20206;-56
2023/03/19 12:50:11;;;;;;;1.00;1.00;;;;;;;;;;4946192;28;20191;-56
2023/03/19 12:52:38;;;;;;;1.00;1.00;;;;;;;;;;4958640;28;20191;-56
2023/03/19 12:55:06;;;;;;;1.10;1.10;;;;;;;;;;4929580;28;20484;-56
2023/03/19 12:57:38;;;;;;;1.00;1.00;;;;;;;;;;4955286;28;20635;-56
2023/03/19 13:00:05;;;;;;;1.00;1.00;;;;;;;;;;4950864;28;20187;-56
2023/03/19 13:02:38;;;;;;;1.20;1.20;;;;;;;;;;4951953;28;20601;-56
2023/03/19 13:05:07;;;;;;;1.10;1.10;;;;;;;;;;4953848;28;20176;-56
2023/03/19 13:07:50;;;;;;;1.00;1.00;;;;;;;;;;4951507;28;20301;-55
2023/03/19 13:10:19;;;;;;;1.10;1.10;;;;;;;;;;4949598;28;20550;-56
2023/03/19 13:12:45;;;;;;;1.10;1.10;;;;;;;;;;4941178;28;20668;-56
2023/03/19 13:15:20;;;;;;;1.20;1.20;;;;;;;;;;4962385;28;20196;-56
2023/03/19 13:17:56;;;;;;;1.10;1.10;;;;;;;;;;4957257;28;20261;-56
2023/03/19 13:20:31;;;;;;;1.10;1.10;;;;;;;;;;4961258;28;20249;-56
2023/03/19 13:22:59;;;;;;;1.10;1.10;;;;;;;;;;4958395;28;20198;-56
2023/03/19 13:25:28;;;;;;;1.10;1.10;;;;;;;;;;4957465;28;20203;-57
2023/03/19 13:27:54;;;;;;;1.00;1.00;;;;;;;;;;4936470;28;20188;-55
2023/03/19 13:30:20;;;;;;;1.10;1.10;;;;;;;;;;4955728;28;20651;-56
2023/03/19 13:32:50;;;;;;;1.10;1.10;;;;;;;;;;4948198;28;20199;-56
2023/03/19 13:35:25;;;;;;;1.20;1.20;;;;;;;;;;4950478;28;20531;-55
2023/03/19 13:37:54;;;;;;;1.10;1.10;;;;;;;;;;4958924;28;20432;-55
2023/03/19 13:40:40;;;;;;;1.20;1.20;;;;;;;;;;4955264;28;20187;-55
2023/03/19 13:43:40;;;;;;;1.10;1.10;;;;;;;;;;4957440;28;20286;-55
2023/03/19 13:46:12;;;;;;;1.10;1.10;;;;;;;;;;4907724;28;20275;-54
2023/03/19 13:48:38;;;;;;;1.00;1.00;;;;;;;;;;4953617;28;20278;-54
2023/03/19 13:51:24;;;;;;;1.00;1.00;;;;;;;;;;4938087;28;20194;-55
2023/03/19 13:53:50;;;;;;;1.10;1.10;;;;;;;;;;4960381;28;20553;-55
2023/03/19 13:56:16;;;;;;;1.10;1.10;;;;;;;;;;4956170;28;20593;-55
2023/03/19 13:58:51;;;;;;;1.00;1.00;;;;;;;;;;4925328;28;20229;-55
2023/03/19 14:01:26;;;;;;;1.00;1.00;;;;;;;;;;4958024;28;20198;-55
2023/03/19 14:03:53;;;;;;;1.10;1.10;;;;;;;;;;4957803;28;20281;-55
2023/03/19 14:06:34;;;;;;;1.10;1.10;;;;;;;;;;4957535;28;20231;-55
2023/03/19 14:09:00;;;;;;;1.10;1.10;;;;;;;;;;4958371;28;20218;-55
2023/03/19 14:11:32;;;;;;;1.20;1.20;;;;;;;;;;4944281;28;20242;-54
2023/03/19 14:13:59;;;;;;;0.90;0.90;;;;;;;;;;4959098;28;20188;-55
2023/03/19 14:16:26;;;;;;;1.00;1.00;;;;;;;;;;4937827;28;20183;-55
2023/03/19 14:18:55;;;;;;;1.00;1.00;;;;;;;;;;4941422;28;20226;-55
2023/03/19 14:21:35;;;;;;;1.10;1.10;;;;;;;;;;4947861;28;20218;-55
2023/03/19 14:24:21;;;;;;;1.10;1.10;;;;;;;;;;4961073;28;20636;-55
2023/03/19 14:26:47;;;;;;;1.00;1.00;;;;;;;;;;4921580;28;20309;-55
2023/03/19 14:29:13;;;;;;;1.03;1.03;;;;;;;;;;4962726;28;20594;-55
2023/03/19 14:31:44;;;;;;;1.23;1.23;;;;;;;;;;4944711;28;20194;-55
2023/03/19 14:34:10;;;;;;;1.17;1.17;;;;;;;;;;4952302;28;20186;-55
2023/03/19 14:36:38;;;;;;;1.60;1.60;;;;;;;;;;4954414;28;20183;-56
2023/03/19 14:39:28;;;;;;;1.40;1.40;;;;;;;;;;4933682;28;20199;-55
2023/03/19 14:42:03;;;;;;;1.60;1.60;;;;;;;;;;4934945;28;20196;-56
2023/03/19 14:44:35;;;;;;;1.63;1.63;;;;;;;;;;4951473;28;20242;-56
2023/03/19 14:47:04;;;;;;;1.60;1.60;;;;;;;;;;4955804;28;20196;-56
2023/03/19 14:49:30;;;;;;;1.80;1.70;;;;;;;;;;4953753;28;20215;-55